Time;durP1;ratioP1;P1;durP2;ratioP2;P2;SDS_P1;SDS_P2;PMS_P1;PMS_P2;Temp;Humidity;BMP_temperature;BMP_pressure;BME280_temperature;BME280_humidity;BME280_pressure;Samples;Min_cycle;Max_cycle;Signal;HPM_P1;HPM_P2
2023/02/20 00:00:16;;;;;;;33.15;17.48;;;7.60;90.00;;;;;;5037528;28;20108;-72
2023/02/20 00:02:41;;;;;;;31.05;17.20;;;7.50;90.00;;;;;;5034241;28;20034;-74
2023/02/20 00:05:07;;;;;;;28.63;16.60;;;7.60;90.10;;;;;;5038546;28;20060;-71
2023/02/20 00:07:33;;;;;;;24.25;15.88;;;7.60;90.00;;;;;;5042928;28;20136;-71
2023/02/20 00:09:58;;;;;;;30.75;15.98;;;7.60;90.00;;;;;;5045454;28;20025;-72
2023/02/20 00:12:24;;;;;;;30.55;16.45;;;7.60;90.00;;;;;;5033783;28;20029;-70
2023/02/20 00:14:50;;;;;;;31.20;16.20;;;7.60;90.10;;;;;;5042795;28;20045;-71
2023/02/20 00:17:15;;;;;;;31.05;15.60;;;7.60;90.10;;;;;;5024541;28;20063;-73
2023/02/20 00:19:41;;;;;;;30.85;15.50;;;7.70;90.00;;;;;;5036162;28;20473;-72
2023/02/20 00:22:06;;;;;;;31.45;14.90;;;7.70;89.90;;;;;;5037544;28;20087;-71
2023/02/20 00:24:33;;;;;;;27.90;14.60;;;7.70;89.90;;;;;;5035164;28;20099;-73
2023/02/20 00:26:58;;;;;;;29.17;14.32;;;7.70;89.90;;;;;;5040550;28;20686;-73
2023/02/20 00:29:24;;;;;;;30.27;14.68;;;7.70;89.90;;;;;;5037899;28;20305;-71
2023/02/20 00:31:54;;;;;;;27.42;13.40;;;7.70;89.90;;;;;;5038149;28;20037;-70
2023/02/20 00:34:22;;;;;;;25.25;13.43;;;7.80;89.80;;;;;;5037624;28;20508;-74
2023/02/20 00:36:48;;;;;;;24.75;13.77;;;7.80;89.70;;;;;;5041606;28;20061;-72
2023/02/20 00:39:13;;;;;;;34.13;13.93;;;7.70;89.80;;;;;;5036530;28;20060;-72
2023/02/20 00:41:39;;;;;;;29.00;14.48;;;7.70;89.70;;;;;;5038826;28;20128;-76
2023/02/20 00:44:05;;;;;;;26.75;13.63;;;7.80;89.90;;;;;;5041973;28;20029;-72
2023/02/20 00:46:31;;;;;;;29.13;13.35;;;7.70;89.80;;;;;;5036781;28;20040;-73
2023/02/20 00:48:56;;;;;;;27.70;12.70;;;7.70;89.70;;;;;;5024904;28;20106;-72
2023/02/20 00:51:22;;;;;;;22.15;12.10;;;7.70;89.80;;;;;;5036981;28;20079;-70
2023/02/20 00:53:48;;;;;;;27.95;12.55;;;7.70;89.80;;;;;;5043730;28;20108;-72
2023/02/20 00:56:13;;;;;;;25.80;12.80;;;7.70;89.90;;;;;;5043129;28;20033;-71
2023/02/20 00:58:39;;;;;;;20.88;12.20;;;7.70;90.00;;;;;;5039985;28;20029;-70
2023/02/20 01:01:05;;;;;;;26.17;14.40;;;7.70;90.10;;;;;;5039541;28;20445;-72
2023/02/20 01:03:31;;;;;;;29.50;13.43;;;7.80;89.90;;;;;;5026822;28;20029;-72
2023/02/20 01:05:56;;;;;;;23.15;12.43;;;7.70;89.80;;;;;;5044525;28;20400;-72
2023/02/20 01:08:22;;;;;;;27.48;13.60;;;7.80;89.80;;;;;;5044200;28;20379;-70
2023/02/20 01:10:48;;;;;;;29.35;13.63;;;7.70;89.90;;;;;;5044658;28;20098;-75
2023/02/20 01:13:14;;;;;;;33.53;14.75;;;7.70;89.90;;;;;;5039124;28;20032;-71
2023/02/20 01:15:40;;;;;;;26.92;12.93;;;7.80;89.90;;;;;;5045142;28;20028;-71
2023/02/20 01:18:06;;;;;;;24.33;13.32;;;7.70;89.80;;;;;;5042924;28;20036;-71
2023/02/20 01:20:31;;;;;;;31.55;13.05;;;7.70;89.80;;;;;;5042611;28;20525;-70
2023/02/20 01:22:57;;;;;;;29.52;13.48;;;7.70;89.80;;;;;;5026022;28;20026;-71
2023/02/20 01:25:23;;;;;;;25.83;14.00;;;7.70;89.80;;;;;;5042993;28;20071;-77
2023/02/20 01:27:49;;;;;;;29.60;14.00;;;7.60;89.90;;;;;;5043709;28;20116;-72
2023/02/20 01:30:14;;;;;;;25.30;14.35;;;7.60;90.00;;;;;;5039620;28;20052;-73
2023/02/20 01:32:40;;;;;;;24.95;13.70;;;7.60;90.00;;;;;;5040574;28;20478;-71
2023/02/20 01:35:06;;;;;;;33.75;14.13;;;7.60;89.90;;;;;;5043462;28;20051;-72
2023/02/20 01:37:32;;;;;;;26.92;12.20;;;7.50;89.90;;;;;;5042162;28;21241;-75
2023/02/20 01:39:58;;;;;;;27.98;13.63;;;7.50;90.00;;;;;;5040270;28;20063;-72
2023/02/20 01:42:27;;;;;;;29.35;13.13;;;7.40;90.00;;;;;;5042459;28;20036;-78
2023/02/20 01:44:52;;;;;;;29.50;13.10;;;7.40;90.20;;;;;;5044048;28;20400;-75
2023/02/20 01:47:23;;;;;;;30.02;12.43;;;7.40;90.20;;;;;;5041303;28;20117;-73
2023/02/20 01:49:56;;;;;;;26.77;12.07;;;7.40;90.30;;;;;;5027832;28;20036;-71
2023/02/20 01:52:22;;;;;;;26.80;13.73;;;7.30;90.30;;;;;;5041940;28;20140;-71
2023/02/20 01:54:53;;;;;;;27.33;13.07;;;7.20;90.40;;;;;;5025812;28;20052;-72
2023/02/20 01:57:22;;;;;;;28.60;12.40;;;7.20;90.40;;;;;;5044180;28;20053;-71
2023/02/20 01:59:51;;;;;;;28.20;13.15;;;7.20;90.70;;;;;;5047127;28;20025;-72
2023/02/20 02:02:17;;;;;;;27.45;12.20;;;7.20;90.70;;;;;;5047506;28;20469;-72
2023/02/20 02:04:44;;;;;;;27.35;12.38;;;7.20;90.70;;;;;;5047115;28;20033;-73
2023/02/20 02:07:10;;;;;;;29.33;11.85;;;7.10;90.80;;;;;;5046661;28;20627;-74
2023/02/20 02:09:48;;;;;;;23.40;11.23;;;7.20;90.80;;;;;;5046026;28;20029;-71
2023/02/20 02:12:13;;;;;;;20.15;10.40;;;7.10;90.90;;;;;;5044122;28;20037;-73
2023/02/20 02:14:39;;;;;;;24.02;10.57;;;7.10;90.80;;;;;;5046584;28;20032;-72
2023/02/20 02:17:42;;;;;;;20.33;10.30;;;7.10;90.90;;;;;;5046429;28;20044;-72
2023/02/20 02:20:16;;;;;;;23.08;9.63;;;7.10;90.80;;;;;;5044098;28;20090;-76
2023/02/20 02:23:21;;;;;;;30.75;9.73;;;7.10;91.00;;;;;;5042986;28;20068;-74
2023/02/20 02:26:16;;;;;;;23.23;9.60;;;7.10;90.90;;;;;;5041058;28;20052;-74
2023/02/20 02:29:18;;;;;;;27.60;9.82;;;7.10;91.10;;;;;;4956704;28;20063;-72
2023/02/20 02:32:12;;;;;;;27.90;9.15;;;7.10;91.20;;;;;;5045977;28;20033;-71
2023/02/20 02:34:56;;;;;;;25.02;9.55;;;7.20;91.30;;;;;;5046011;28;20028;-73
2023/02/20 02:37:36;;;;;;;18.63;8.80;;;7.20;91.20;;;;;;5045551;28;20127;-70
2023/02/20 02:40:18;;;;;;;22.25;9.15;;;7.30;91.10;;;;;;5042809;28;20037;-72
2023/02/20 02:43:06;;;;;;;25.35;9.10;;;7.30;91.10;;;;;;5044284;28;20061;-70
2023/02/20 02:45:41;;;;;;;23.55;10.30;;;7.30;91.10;;;;;;5043867;28;20080;-70
2023/02/20 02:48:15;;;;;;;17.40;8.52;;;7.40;91.00;;;;;;5046891;28;20639;-70
2023/02/20 02:50:44;;;;;;;20.48;8.23;;;7.50;90.90;;;;;;5046160;28;20589;-71
2023/02/20 02:53:12;;;;;;;23.05;8.70;;;7.50;90.80;;;;;;5027533;28;20730;-72
2023/02/20 02:55:37;;;;;;;24.98;9.45;;;7.50;90.70;;;;;;5044471;28;20489;-71
2023/02/20 02:58:04;;;;;;;21.90;9.52;;;7.60;90.70;;;;;;5028903;28;20734;-76
2023/02/20 03:00:42;;;;;;;19.88;9.38;;;7.60;90.60;;;;;;5042278;28;20025;-75
2023/02/20 03:03:30;;;;;;;27.52;8.70;;;7.60;90.60;;;;;;5044449;28;20032;-73
2023/02/20 03:06:16;;;;;;;21.42;8.73;;;7.60;90.50;;;;;;5026866;28;20041;-70
2023/02/20 03:08:48;;;;;;;26.02;8.30;;;7.60;90.50;;;;;;5041752;28;20029;-70
2023/02/20 03:11:18;;;;;;;29.58;8.20;;;7.70;90.30;;;;;;5044352;28;20064;-76
2023/02/20 03:16:50;;;;;;;30.92;10.77;;;7.70;90.20;;;;;;5039903;28;20051;-71
2023/02/20 03:19:26;;;;;;;28.33;11.52;;;7.70;90.00;;;;;;5045352;28;20028;-70
2023/02/20 03:21:55;;;;;;;27.38;10.43;;;7.70;89.80;;;;;;5041670;28;20064;-76
2023/02/20 03:24:24;;;;;;;24.35;10.23;;;7.80;89.70;;;;;;5038361;28;20028;-72
2023/02/20 03:26:54;;;;;;;22.63;9.80;;;7.80;89.60;;;;;;5043141;28;20025;-71
2023/02/20 03:29:28;;;;;;;22.85;9.95;;;7.80;89.30;;;;;;5044780;28;20107;-77
2023/02/20 03:43:24;;;;;;;24.38;10.93;;;7.80;88.90;;;;;;5045547;28;20032;-70
2023/02/20 03:46:12;;;;;;;29.35;11.77;;;7.80;88.70;;;;;;5042007;28;20066;-71
2023/02/20 03:49:03;;;;;;;28.75;10.27;;;7.80;88.60;;;;;;5041561;28;20026;-74
2023/02/20 03:54:13;;;;;;;23.53;11.40;;;7.80;88.60;;;;;;5043535;28;20044;-73
2023/02/20 03:56:51;;;;;;;28.13;11.52;;;7.90;88.30;;;;;;5043186;28;20056;-71
2023/02/20 03:59:37;;;;;;;24.27;11.93;;;7.80;88.20;;;;;;5041108;28;20028;-73
2023/02/20 04:02:09;;;;;;;28.15;11.90;;;7.80;88.20;;;;;;5040279;28;20072;-73
2023/02/20 04:04:43;;;;;;;25.42;12.10;;;7.80;88.30;;;;;;5044545;28;20499;-74
2023/02/20 04:07:19;;;;;;;18.98;11.80;;;7.90;88.30;;;;;;5040861;28;20091;-72
2023/02/20 04:09:45;;;;;;;30.92;13.80;;;7.80;88.40;;;;;;5041682;28;20028;-73
2023/02/20 04:12:24;;;;;;;26.60;12.98;;;7.90;88.30;;;;;;5046065;28;20075;-73
2023/02/20 04:14:52;;;;;;;28.85;13.70;;;7.90;88.20;;;;;;5042236;28;20110;-72
2023/02/20 04:17:24;;;;;;;27.08;13.95;;;7.90;88.10;;;;;;5043295;28;20036;-73
2023/02/20 04:19:50;;;;;;;24.45;13.48;;;7.90;88.00;;;;;;5041306;28;20330;-73
2023/02/20 04:22:30;;;;;;;30.65;14.57;;;7.90;88.00;;;;;;5026662;28;20033;-72
2023/02/20 04:25:05;;;;;;;30.10;15.25;;;7.90;87.80;;;;;;5043823;28;20079;-72
2023/02/20 04:27:31;;;;;;;28.17;14.02;;;7.90;87.70;;;;;;5043004;28;20037;-72
2023/02/20 04:29:57;;;;;;;27.25;14.75;;;7.90;87.70;;;;;;5045695;28;20051;-73
2023/02/20 04:32:23;;;;;;;24.33;13.35;;;7.90;87.70;;;;;;5042598;28;20095;-72
2023/02/20 04:34:49;;;;;;;30.17;15.60;;;7.90;87.60;;;;;;5045741;28;20044;-73
2023/02/20 04:37:18;;;;;;;26.88;14.13;;;7.90;87.50;;;;;;5043674;28;20029;-70
2023/02/20 04:39:44;;;;;;;24.55;13.65;;;7.90;87.60;;;;;;5021856;28;20377;-72
2023/02/20 04:42:10;;;;;;;29.38;13.75;;;7.90;87.60;;;;;;5043637;28;20503;-74
2023/02/20 04:44:36;;;;;;;26.23;14.35;;;8.00;87.60;;;;;;5039646;28;20037;-70
2023/02/20 04:47:10;;;;;;;30.40;14.98;;;7.90;87.60;;;;;;5042665;28;20108;-71
2023/02/20 04:49:36;;;;;;;25.50;15.00;;;8.00;87.50;;;;;;5044743;28;20032;-73
2023/02/20 04:52:01;;;;;;;31.80;16.08;;;8.00;87.40;;;;;;5044167;28;20481;-70
2023/02/20 04:54:27;;;;;;;24.60;14.73;;;8.00;87.40;;;;;;5044034;28;20470;-73
2023/02/20 04:56:53;;;;;;;25.40;15.65;;;8.00;87.40;;;;;;5043113;28;20033;-71
2023/02/20 04:59:18;;;;;;;27.73;15.50;;;8.00;87.30;;;;;;5043614;28;20025;-76
2023/02/20 05:01:47;;;;;;;24.83;14.43;;;8.00;87.40;;;;;;5041296;28;20032;-70
2023/02/20 05:04:16;;;;;;;23.92;14.88;;;8.00;87.40;;;;;;5043959;28;20485;-73
2023/02/20 05:06:46;;;;;;;30.40;15.05;;;8.00;87.30;;;;;;5043471;28;20033;-70
2023/02/20 05:09:11;;;;;;;36.85;15.52;;;8.00;87.40;;;;;;5043639;28;20036;-72
2023/02/20 05:11:37;;;;;;;29.05;14.13;;;8.00;87.50;;;;;;5043663;28;20041;-73
2023/02/20 05:14:04;;;;;;;28.80;16.33;;;8.00;87.50;;;;;;5042936;28;20390;-75
2023/02/20 05:16:29;;;;;;;22.00;14.02;;;8.10;87.40;;;;;;5041468;28;20133;-72
2023/02/20 05:18:55;;;;;;;32.70;16.08;;;8.10;87.30;;;;;;5042924;28;20075;-74
2023/02/20 05:24:05;;;;;;;28.77;15.30;;;8.10;87.40;;;;;;5036975;28;20096;-73
2023/02/20 05:26:31;;;;;;;23.98;12.82;;;8.10;87.20;;;;;;5042968;28;20440;-71
2023/02/20 05:28:56;;;;;;;30.88;13.65;;;8.10;87.20;;;;;;5044601;28;20095;-73
2023/02/20 05:31:22;;;;;;;25.05;13.57;;;8.10;87.20;;;;;;5040944;28;20021;-74
2023/02/20 05:33:48;;;;;;;24.88;13.02;;;8.10;87.10;;;;;;5042542;28;20025;-73
2023/02/20 05:36:14;;;;;;;23.35;13.85;;;8.10;86.90;;;;;;5025595;28;20260;-71
2023/02/20 05:38:46;;;;;;;26.30;13.15;;;8.10;86.80;;;;;;5040834;28;20025;-69
2023/02/20 05:41:15;;;;;;;26.85;14.40;;;8.10;86.90;;;;;;5040072;28;20052;-71
2023/02/20 05:43:41;;;;;;;28.77;13.43;;;8.10;86.80;;;;;;5025928;28;20876;-71
2023/02/20 05:46:06;;;;;;;31.05;13.65;;;8.10;86.90;;;;;;5039379;28;20060;-74
2023/02/20 05:48:32;;;;;;;27.23;13.35;;;8.10;86.90;;;;;;5043416;28;20330;-70
2023/02/20 05:50:58;;;;;;;23.40;12.75;;;8.10;86.90;;;;;;5041089;28;20693;-71
2023/02/20 05:53:27;;;;;;;29.88;12.32;;;8.10;86.80;;;;;;5040845;28;20029;-70
2023/02/20 05:55:53;;;;;;;24.40;13.23;;;8.10;86.80;;;;;;5044052;28;20052;-72
2023/02/20 05:58:19;;;;;;;23.45;11.95;;;8.10;86.80;;;;;;5041343;28;20021;-70
2023/02/20 06:00:44;;;;;;;25.08;11.77;;;8.10;86.80;;;;;;5041273;28;20464;-70
2023/02/20 06:03:10;;;;;;;22.23;10.93;;;8.10;86.50;;;;;;5038529;28;20075;-73
2023/02/20 06:05:36;;;;;;;23.23;10.20;;;8.10;86.60;;;;;;5040453;28;20037;-76
2023/02/20 06:08:02;;;;;;;19.52;10.07;;;8.20;86.70;;;;;;5042908;28;20477;-73
2023/02/20 06:10:27;;;;;;;18.13;9.27;;;8.10;86.70;;;;;;5043483;28;20028;-72
2023/02/20 06:12:53;;;;;;;23.40;9.43;;;8.10;86.80;;;;;;5041420;28;20048;-71
2023/02/20 06:15:18;;;;;;;27.02;9.85;;;8.10;86.80;;;;;;5043700;28;20037;-70
2023/02/20 06:17:44;;;;;;;17.35;8.10;;;8.10;86.90;;;;;;5039316;28;20035;-75
2023/02/20 06:20:10;;;;;;;22.25;8.48;;;8.10;86.70;;;;;;5044177;28;20035;-71
2023/02/20 06:22:36;;;;;;;20.13;8.60;;;8.10;86.90;;;;;;5041701;28;20047;-72
2023/02/20 06:25:01;;;;;;;20.80;7.72;;;8.10;86.90;;;;;;5040402;28;20142;-72
2023/02/20 06:27:27;;;;;;;18.58;8.05;;;8.10;86.90;;;;;;5040540;28;20477;-70
2023/02/20 06:29:53;;;;;;;19.80;7.45;;;8.10;86.90;;;;;;5042109;28;20059;-74
2023/02/20 06:32:18;;;;;;;16.30;8.73;;;8.20;86.90;;;;;;5042318;28;20033;-71
2023/02/20 06:34:45;;;;;;;24.23;9.27;;;8.10;86.90;;;;;;5043358;28;20035;-70
2023/02/20 06:37:11;;;;;;;20.40;8.35;;;8.20;86.80;;;;;;5042079;28;20063;-75
2023/02/20 06:39:38;;;;;;;22.52;8.98;;;8.20;86.90;;;;;;5040553;28;20028;-72
2023/02/20 06:42:04;;;;;;;19.35;8.52;;;8.20;86.80;;;;;;5042406;28;20029;-74
2023/02/20 06:44:29;;;;;;;20.27;9.65;;;8.10;87.10;;;;;;5043018;28;20094;-72
2023/02/20 06:46:55;;;;;;;20.00;10.10;;;8.10;87.10;;;;;;5038131;28;20045;-73
2023/02/20 06:49:21;;;;;;;21.23;10.13;;;8.10;87.00;;;;;;5043801;28;20103;-71
2023/02/20 06:51:46;;;;;;;25.70;12.82;;;8.20;86.90;;;;;;5042203;28;20075;-75
2023/02/20 06:54:12;;;;;;;22.45;12.40;;;8.20;86.80;;;;;;5039000;28;20757;-73
2023/02/20 06:56:38;;;;;;;29.08;14.02;;;8.20;86.70;;;;;;5040444;28;20386;-73
2023/02/20 06:59:07;;;;;;;28.95;14.70;;;8.20;86.50;;;;;;5019417;28;20036;-74
2023/02/20 07:01:39;;;;;;;25.80;14.13;;;8.20;86.40;;;;;;5037764;28;20053;-73
2023/02/20 07:04:05;;;;;;;25.92;14.65;;;8.20;86.50;;;;;;5040602;28;20075;-73
2023/02/20 07:06:31;;;;;;;23.88;13.85;;;8.20;86.50;;;;;;5034565;28;20128;-76
2023/02/20 07:08:57;;;;;;;27.58;14.25;;;8.20;86.50;;;;;;5038550;28;20061;-72
2023/02/20 07:11:23;;;;;;;32.30;16.05;;;8.30;86.50;;;;;;5035487;28;20500;-78
2023/02/20 07:13:50;;;;;;;24.17;15.27;;;8.30;86.50;;;;;;5036552;28;20030;-74
2023/02/20 07:16:15;;;;;;;27.85;16.65;;;8.30;86.50;;;;;;5038371;28;20548;-74
2023/02/20 07:18:41;;;;;;;30.33;15.77;;;8.20;86.70;;;;;;5037225;28;20100;-75
2023/02/20 07:21:07;;;;;;;27.73;16.20;;;8.30;86.60;;;;;;5037584;28;20572;-72
2023/02/20 07:23:33;;;;;;;27.83;15.35;;;8.30;86.50;;;;;;5039788;28;20068;-73
2023/02/20 07:25:58;;;;;;;27.02;16.85;;;8.40;86.30;;;;;;5043580;28;20135;-75
2023/02/20 07:28:24;;;;;;;28.25;17.17;;;8.40;86.30;;;;;;5027737;28;20028;-71
2023/02/20 07:30:50;;;;;;;27.63;16.27;;;8.40;86.30;;;;;;5042606;28;20041;-74
2023/02/20 07:33:18;;;;;;;28.10;16.95;;;8.40;86.50;;;;;;5047372;28;20016;-73
2023/02/20 07:35:45;;;;;;;26.60;15.85;;;8.40;86.30;;;;;;5038948;28;20532;-75
2023/02/20 07:38:11;;;;;;;34.85;17.35;;;8.40;86.30;;;;;;5045753;28;20024;-73
2023/02/20 07:40:37;;;;;;;27.77;15.73;;;8.40;86.40;;;;;;5037483;28;20048;-73
2023/02/20 07:43:03;;;;;;;26.92;16.60;;;8.40;86.40;;;;;;5043060;28;20106;-73
2023/02/20 07:45:28;;;;;;;29.02;16.05;;;8.50;86.40;;;;;;5040080;28;20045;-73
2023/02/20 07:47:54;;;;;;;27.55;16.50;;;8.50;86.50;;;;;;5048703;28;20047;-72
2023/02/20 07:50:20;;;;;;;30.38;17.35;;;8.50;86.30;;;;;;5038989;28;20440;-72
2023/02/20 07:52:46;;;;;;;27.80;16.10;;;8.50;86.30;;;;;;5044640;28;20450;-75
2023/02/20 07:55:14;;;;;;;24.38;15.50;;;8.50;86.40;;;;;;5037569;28;20346;-76
2023/02/20 07:57:39;;;;;;;24.58;17.15;;;8.60;86.30;;;;;;5042042;28;20033;-77
2023/02/20 08:00:06;;;;;;;26.88;16.08;;;8.60;86.20;;;;;;5036866;28;20485;-76
2023/02/20 08:02:32;;;;;;;25.48;15.52;;;8.60;86.10;;;;;;5031838;28;20036;-75
2023/02/20 08:04:57;;;;;;;25.80;15.70;;;8.70;85.90;;;;;;5039179;28;20025;-77
2023/02/20 08:07:23;;;;;;;22.73;14.40;;;8.70;85.90;;;;;;5037199;28;20029;-76
2023/02/20 08:09:49;;;;;;;23.38;14.38;;;8.60;85.90;;;;;;5038015;28;20025;-75
2023/02/20 08:12:14;;;;;;;27.65;15.27;;;8.80;85.80;;;;;;5040643;28;20102;-76
2023/02/20 08:14:40;;;;;;;24.20;14.00;;;8.80;85.70;;;;;;5040945;28;20452;-76
2023/02/20 08:17:06;;;;;;;27.77;14.32;;;8.90;85.70;;;;;;5044441;28;20040;-75
2023/02/20 08:19:31;;;;;;;28.25;13.68;;;8.80;85.70;;;;;;5036538;28;20030;-74
2023/02/20 08:21:57;;;;;;;26.48;14.10;;;8.90;85.70;;;;;;5035321;28;20469;-78
2023/02/20 08:24:23;;;;;;;22.77;14.00;;;8.90;85.80;;;;;;5025321;28;20151;-77
2023/02/20 08:26:49;;;;;;;27.42;14.20;;;8.90;85.80;;;;;;5043009;28;20040;-75
2023/02/20 08:29:16;;;;;;;28.05;14.25;;;8.90;85.80;;;;;;5027245;28;20408;-75
2023/02/20 08:31:42;;;;;;;21.45;12.98;;;8.90;85.80;;;;;;5023564;28;20120;-75
2023/02/20 08:34:08;;;;;;;20.05;11.85;;;8.90;85.70;;;;;;5034139;28;20033;-75
2023/02/20 08:36:34;;;;;;;22.25;12.40;;;8.90;85.40;;;;;;5033367;28;20061;-75
2023/02/20 08:39:01;;;;;;;18.80;12.02;;;8.90;85.80;;;;;;5038565;28;20147;-75
2023/02/20 08:41:27;;;;;;;21.27;12.32;;;9.00;85.50;;;;;;5032295;28;20037;-75
2023/02/20 08:43:55;;;;;;;22.27;12.82;;;9.00;85.50;;;;;;5032377;28;20025;-75
2023/02/20 08:46:21;;;;;;;22.52;11.82;;;9.00;85.30;;;;;;5030063;28;20045;-81
2023/02/20 08:48:47;;;;;;;24.27;12.07;;;9.00;85.30;;;;;;5042741;28;20032;-75
2023/02/20 08:51:17;;;;;;;22.75;12.88;;;9.10;85.10;;;;;;5023041;28;20041;-77
2023/02/20 08:53:42;;;;;;;20.52;11.02;;;9.10;85.20;;;;;;5038679;28;20024;-75
2023/02/20 08:56:08;;;;;;;24.10;12.65;;;9.10;85.40;;;;;;5040147;28;20029;-76
2023/02/20 08:58:34;;;;;;;23.75;11.60;;;9.10;85.20;;;;;;5042527;28;20025;-75
2023/02/20 09:01:00;;;;;;;22.27;11.48;;;9.10;85.10;;;;;;5037885;28;20048;-76
2023/02/20 09:03:26;;;;;;;19.67;10.80;;;9.10;85.00;;;;;;5037442;28;20017;-76
2023/02/20 09:05:52;;;;;;;18.85;11.20;;;9.20;85.00;;;;;;5029526;28;20044;-78
2023/02/20 09:08:18;;;;;;;19.17;10.38;;;9.20;84.90;;;;;;5037699;28;20013;-77
2023/02/20 09:10:44;;;;;;;22.83;10.77;;;9.20;85.00;;;;;;5038199;28;20021;-78
2023/02/20 09:13:10;;;;;;;21.80;10.00;;;9.20;84.90;;;;;;5036860;28;20100;-78
2023/02/20 09:15:38;;;;;;;19.27;9.90;;;9.30;85.00;;;;;;5037534;28;20100;-77
2023/02/20 09:18:10;;;;;;;21.48;11.40;;;9.30;84.60;;;;;;5033814;28;20022;-76
2023/02/20 09:20:36;;;;;;;25.25;11.27;;;9.30;84.80;;;;;;5046992;28;20094;-76
2023/02/20 09:23:02;;;;;;;20.75;10.98;;;9.30;84.80;;;;;;5045316;28;20024;-76
2023/02/20 09:25:28;;;;;;;21.90;13.05;;;9.40;84.70;;;;;;5043827;28;20466;-76
2023/02/20 09:27:54;;;;;;;24.33;13.32;;;9.30;84.70;;;;;;5041131;28;20025;-77
2023/02/20 09:30:21;;;;;;;19.42;12.60;;;9.30;84.80;;;;;;5038038;28;20053;-76
2023/02/20 09:32:47;;;;;;;24.10;14.15;;;9.40;84.70;;;;;;5046336;28;20029;-77
2023/02/20 09:35:25;;;;;;;24.60;14.02;;;9.40;84.60;;;;;;5040828;28;20493;-78
2023/02/20 09:37:52;;;;;;;21.17;13.52;;;9.50;84.40;;;;;;5035469;28;20277;-76
2023/02/20 09:40:22;;;;;;;23.65;13.57;;;9.50;84.50;;;;;;5042778;28;20018;-77
2023/02/20 09:43:16;;;;;;;23.58;13.88;;;9.60;84.40;;;;;;5040055;28;20432;-76
2023/02/20 09:46:05;;;;;;;27.00;13.85;;;9.50;84.40;;;;;;5038553;28;20127;-75
2023/02/20 09:48:47;;;;;;;25.15;14.10;;;9.40;84.60;;;;;;5040481;28;20501;-76
2023/02/20 09:51:21;;;;;;;22.75;14.02;;;9.50;84.80;;;;;;5040240;28;20091;-75
2023/02/20 09:54:24;;;;;;;28.08;14.48;;;9.60;84.70;;;;;;5030519;28;20463;-76
2023/02/20 09:56:54;;;;;;;25.05;15.68;;;9.60;84.30;;;;;;5039990;28;20111;-76
2023/02/20 09:59:26;;;;;;;28.52;16.38;;;9.60;84.20;;;;;;5032502;28;20049;-76
2023/02/20 10:02:11;;;;;;;24.85;15.43;;;9.70;84.20;;;;;;5043109;28;20029;-77
2023/02/20 10:04:38;;;;;;;;;;;9.70;84.00;;;;;;5041414;28;20059;-75
2023/02/20 10:07:23;;;;;;;24.70;15.38;;;9.70;84.00;;;;;;5044420;28;19924;-77
2023/02/20 10:09:49;;;;;;;22.92;15.38;;;9.70;83.70;;;;;;5041925;28;20390;-77
2023/02/20 10:12:30;;;;;;;25.20;15.15;;;9.70;83.80;;;;;;5039227;28;20082;-78
2023/02/20 10:15:14;;;;;;;25.77;14.70;;;9.60;84.00;;;;;;5049229;28;20036;-75
2023/02/20 10:18:06;;;;;;;22.33;12.68;;;9.60;84.00;;;;;;5043427;28;20866;-77
2023/02/20 10:20:47;;;;;;;19.92;11.80;;;9.70;83.90;;;;;;5024955;28;20123;-77
2023/02/20 10:23:13;;;;;;;17.90;10.65;;;9.60;84.20;;;;;;5049199;28;20063;-76
2023/02/20 10:25:44;;;;;;;18.00;10.52;;;9.60;84.10;;;;;;5044411;28;20432;-77
2023/02/20 10:28:17;;;;;;;20.05;10.70;;;9.60;84.10;;;;;;5034297;28;20032;-77
2023/02/20 10:30:57;;;;;;;17.08;10.07;;;9.60;84.00;;;;;;5025041;28;20406;-76
2023/02/20 10:33:37;;;;;;;20.20;10.50;;;9.60;84.40;;;;;;5039457;28;20464;-77
2023/02/20 10:36:14;;;;;;;19.20;11.10;;;9.60;84.40;;;;;;5046994;28;20041;-78
2023/02/20 10:39:04;;;;;;;22.88;10.45;;;9.50;84.30;;;;;;5045461;28;20047;-78
2023/02/20 10:41:53;;;;;;;22.98;12.05;;;9.60;84.30;;;;;;5048280;28;20128;-77
2023/02/20 10:44:23;;;;;;;20.52;10.52;;;9.60;84.30;;;;;;5042392;28;20029;-76
2023/02/20 10:46:57;;;;;;;23.17;10.93;;;9.70;84.10;;;;;;5040695;28;20059;-77
2023/02/20 10:49:32;;;;;;;17.93;10.17;;;9.70;84.10;;;;;;5041904;28;20984;-77
2023/02/20 10:52:01;;;;;;;23.05;11.48;;;9.60;83.90;;;;;;5041158;28;20112;-77
2023/02/20 10:54:42;;;;;;;22.02;10.65;;;9.70;84.00;;;;;;5041260;28;20627;-79
2023/02/20 10:57:18;;;;;;;21.23;10.45;;;9.70;84.10;;;;;;5045684;28;20044;-77
2023/02/20 10:59:54;;;;;;;18.90;9.95;;;9.70;83.80;;;;;;5039024;28;20033;-78
2023/02/20 11:02:26;;;;;;;20.55;10.00;;;9.70;83.90;;;;;;5044590;28;20025;-78
2023/02/20 11:05:00;;;;;;;18.30;10.73;;;9.70;84.10;;;;;;5047294;28;20376;-81
2023/02/20 11:07:26;;;;;;;19.23;10.88;;;9.60;84.50;;;;;;5049561;28;20098;-79
2023/02/20 11:09:51;;;;;;;16.88;10.43;;;9.70;84.20;;;;;;5057067;28;20028;-76
2023/02/20 11:12:23;;;;;;;21.55;10.35;;;9.80;84.10;;;;;;5063400;28;20029;-76
2023/02/20 11:14:51;;;;;;;20.20;10.40;;;9.80;84.30;;;;;;5073831;28;20005;-75
2023/02/20 11:17:24;;;;;;;21.35;10.30;;;9.80;84.20;;;;;;5075790;28;20017;-76
2023/02/20 11:19:55;;;;;;;16.50;10.02;;;9.80;84.30;;;;;;5069288;28;20043;-81
2023/02/20 11:22:57;;;;;;;17.05;10.05;;;9.80;84.20;;;;;;5066713;28;20021;-76
2023/02/20 11:25:33;;;;;;;17.73;10.75;;;10.00;84.20;;;;;;5004998;28;20042;-75
2023/02/20 11:28:17;;;;;;;24.60;11.38;;;10.10;84.10;;;;;;5049841;28;20063;-80
2023/02/20 11:30:45;;;;;;;24.75;11.50;;;10.10;83.90;;;;;;5053380;28;20037;-77
2023/02/20 11:33:15;;;;;;;22.77;12.13;;;10.10;83.50;;;;;;5072801;28;20051;-81
2023/02/20 11:35:48;;;;;;;20.17;11.45;;;10.10;83.80;;;;;;5065275;28;20029;-86
2023/02/20 11:38:15;;;;;;;18.90;11.68;;;10.10;83.90;;;;;;5062460;28;20117;-86
2023/02/20 11:40:42;;;;;;;27.73;12.70;;;10.00;84.10;;;;;;5044712;28;20021;-87
2023/02/20 11:43:17;;;;;;;23.50;12.70;;;10.10;84.20;;;;;;5050068;28;20084;-84
2023/02/20 11:45:42;;;;;;;;;;;10.10;84.00;;;;;;5040839;28;20096;-78
2023/02/20 11:48:16;;;;;;;23.88;11.95;;;10.10;83.80;;;;;;5045429;28;20382;-86
2023/02/20 11:50:50;;;;;;;23.95;12.30;;;10.20;84.10;;;;;;5050944;28;20016;-82
2023/02/20 11:53:31;;;;;;;23.15;12.70;;;10.30;83.90;;;;;;5041216;28;20036;-82
2023/02/20 11:56:14;;;;;;;23.25;13.57;;;10.30;83.50;;;;;;5042902;28;20045;-89
2023/02/20 11:58:41;;;;;;;28.40;13.48;;;10.30;83.60;;;;;;5049403;28;20025;-85
2023/02/20 12:01:31;;;;;;;21.60;12.25;;;10.30;83.80;;;;;;5042535;28;20036;-82
2023/02/20 12:03:58;;;;;;;23.75;13.45;;;10.40;83.60;;;;;;5040653;28;20030;-87
2023/02/20 12:06:33;;;;;;;20.63;11.55;;;10.50;83.40;;;;;;5038813;28;20037;-85
2023/02/20 12:09:05;;;;;;;17.05;10.85;;;10.50;83.10;;;;;;5022144;28;20611;-86
2023/02/20 12:11:30;;;;;;;19.13;10.63;;;10.50;82.80;;;;;;5025352;28;20048;-79
2023/02/20 12:13:59;;;;;;;26.00;11.02;;;10.60;82.60;;;;;;5056189;28;20029;-75
2023/02/20 12:16:48;;;;;;;18.33;10.70;;;10.60;82.60;;;;;;5050035;28;20059;-86
2023/02/20 12:19:20;;;;;;;19.45;10.52;;;10.60;82.70;;;;;;5026821;28;20048;-87
2023/02/20 12:22:13;;;;;;;19.48;9.90;;;10.60;82.50;;;;;;5052753;28;20037;-77
2023/02/20 12:25:03;;;;;;;18.25;10.98;;;10.60;82.30;;;;;;5063210;28;20025;-84
2023/02/20 12:28:02;;;;;;;22.90;11.00;;;10.80;82.00;;;;;;5042984;28;20336;-83
2023/02/20 12:30:49;;;;;;;22.35;10.40;;;10.80;82.00;;;;;;5038359;28;20049;-87
2023/02/20 12:33:40;;;;;;;22.10;10.15;;;10.90;81.50;;;;;;5043827;28;20022;-81
2023/02/20 12:36:29;;;;;;;21.15;9.45;;;10.90;81.10;;;;;;5037245;28;20043;-86
2023/02/20 12:39:04;;;;;;;16.23;9.13;;;10.90;80.90;;;;;;5040157;28;20088;-82
2023/02/20 12:41:52;;;;;;;21.75;9.88;;;11.00;81.10;;;;;;5042213;28;20619;-85
2023/02/20 12:44:39;;;;;;;17.38;9.10;;;10.90;80.90;;;;;;5035120;28;20067;-86
2023/02/20 12:47:13;;;;;;;19.85;10.05;;;10.80;81.20;;;;;;5040079;28;20059;-87
2023/02/20 12:49:44;;;;;;;17.85;10.85;;;10.70;81.50;;;;;;5039001;28;20056;-80
2023/02/20 12:52:30;;;;;;;17.98;9.80;;;10.70;81.50;;;;;;5036787;28;20711;-79
2023/02/20 12:55:08;;;;;;;22.50;11.73;;;10.60;81.80;;;;;;5029973;28;20047;-76
2023/02/20 12:58:00;;;;;;;17.73;10.20;;;10.60;82.20;;;;;;5041533;28;20079;-84
2023/02/20 13:00:40;;;;;;;21.02;10.48;;;10.60;82.00;;;;;;5041214;28;20025;-81
2023/02/20 13:03:19;;;;;;;19.63;10.50;;;10.60;82.00;;;;;;5030963;28;20033;-81
2023/02/20 13:05:48;;;;;;;18.00;10.25;;;10.60;82.10;;;;;;5045274;28;20553;-79
2023/02/20 13:08:42;;;;;;;17.35;9.55;;;10.70;82.00;;;;;;5043130;28;20029;-82
2023/02/20 13:11:17;;;;;;;16.17;9.65;;;10.70;81.90;;;;;;5028523;28;20049;-81
2023/02/20 13:14:14;;;;;;;17.23;9.43;;;10.80;81.80;;;;;;5028819;28;20377;-81
2023/02/20 13:17:08;;;;;;;22.48;10.23;;;10.80;81.70;;;;;;5026556;28;20401;-80